createdAt,value
2017-10-21T00:00:53.446Z,13.41
2017-10-21T00:01:54.873Z,13.51
2017-10-21T00:02:56.283Z,13.41
2017-10-21T00:03:57.707Z,13.40
2017-10-21T00:04:59.128Z,13.40
2017-10-21T00:06:00.550Z,13.47
2017-10-21T00:07:01.979Z,13.58
2017-10-21T00:08:03.391Z,13.52
2017-10-21T00:09:04.807Z,13.52
2017-10-21T00:10:06.219Z,13.47
2017-10-21T00:11:07.632Z,13.56
2017-10-21T00:12:09.057Z,13.55
2017-10-21T00:13:10.475Z,13.49
2017-10-21T00:14:11.891Z,13.54
2017-10-21T00:15:13.306Z,13.44
2017-10-21T00:16:14.737Z,13.51
2017-10-21T00:17:16.156Z,13.51
2017-10-21T00:18:17.582Z,13.58
2017-10-21T00:19:19.003Z,13.49
2017-10-21T00:20:20.422Z,13.55
2017-10-21T00:21:21.924Z,13.43
2017-10-21T00:22:23.357Z,13.37
2017-10-21T00:23:24.767Z,13.46
2017-10-21T00:24:26.184Z,13.46
2017-10-21T00:25:27.595Z,13.49
2017-10-21T00:26:29.105Z,13.51
2017-10-21T00:27:30.529Z,13.52
2017-10-21T00:28:32.054Z,13.63
2017-10-21T00:29:33.469Z,13.56
2017-10-21T00:30:34.950Z,13.47
2017-10-21T00:31:36.368Z,13.38
2017-10-21T00:32:37.791Z,13.43
2017-10-21T00:33:39.242Z,13.44
2017-10-21T00:34:40.661Z,13.37
2017-10-21T00:35:42.085Z,13.40
2017-10-21T00:36:43.496Z,13.32
2017-10-21T00:37:44.931Z,13.41
2017-10-21T00:38:46.379Z,13.44
2017-10-21T00:39:47.778Z,13.54
2017-10-21T00:40:49.192Z,13.49
2017-10-21T00:41:50.607Z,13.46
2017-10-21T00:42:52.019Z,13.47
2017-10-21T00:43:53.442Z,13.43
2017-10-21T00:44:54.863Z,13.40
2017-10-21T00:45:56.281Z,13.36
2017-10-21T00:46:57.692Z,13.37
2017-10-21T00:47:59.114Z,13.33
2017-10-21T00:49:00.530Z,13.44
2017-10-21T00:50:01.954Z,13.27
2017-10-21T00:51:03.371Z,13.37
2017-10-21T00:52:04.755Z,13.33
2017-10-21T00:53:06.170Z,13.40
2017-10-21T00:54:07.597Z,13.33
2017-10-21T00:55:09.011Z,13.33
2017-10-21T00:56:10.442Z,13.33
2017-10-21T00:57:11.858Z,13.18
2017-10-21T00:58:13.277Z,13.14
2017-10-21T00:59:14.707Z,13.24
2017-10-21T01:00:16.082Z,13.29
2017-10-21T01:01:17.496Z,13.27
2017-10-21T01:02:18.919Z,13.25
2017-10-21T01:03:20.340Z,13.15
2017-10-21T01:04:21.757Z,13.30
2017-10-21T01:05:23.176Z,13.20
2017-10-21T01:06:24.596Z,13.27
2017-10-21T01:07:26.017Z,13.32
2017-10-21T01:08:27.439Z,13.37
2017-10-21T01:09:28.855Z,13.33
2017-10-21T01:10:30.276Z,13.38
2017-10-21T01:11:31.693Z,13.41
2017-10-21T01:12:33.116Z,13.36
2017-10-21T01:13:34.532Z,13.40
2017-10-21T01:14:35.953Z,13.41
2017-10-21T01:15:37.374Z,13.36
2017-10-21T01:16:38.798Z,13.37
2017-10-21T01:17:40.215Z,13.43
2017-10-21T01:18:41.634Z,13.38
2017-10-21T01:19:43.054Z,13.36
2017-10-21T01:20:44.471Z,13.40
2017-10-21T01:21:45.893Z,13.47
2017-10-21T01:22:47.316Z,13.43
2017-10-21T01:23:48.738Z,13.41
2017-10-21T01:24:50.153Z,13.29
2017-10-21T01:25:51.578Z,13.40
2017-10-21T01:26:52.996Z,13.37
2017-10-21T01:27:54.412Z,13.37
2017-10-21T01:28:55.837Z,13.46
2017-10-21T01:29:57.252Z,13.41
2017-10-21T01:30:58.673Z,13.41
2017-10-21T01:32:00.095Z,13.40
2017-10-21T01:33:01.513Z,13.43
2017-10-21T01:34:02.936Z,13.41
2017-10-21T01:35:04.357Z,13.49
2017-10-21T01:36:05.780Z,13.49
2017-10-21T01:37:07.202Z,13.58
2017-10-21T01:38:08.619Z,13.51
2017-10-21T01:39:10.046Z,13.40
2017-10-21T01:40:11.461Z,13.43
2017-10-21T01:41:12.882Z,13.43
2017-10-21T01:42:14.303Z,13.37
2017-10-21T01:43:15.720Z,13.46
2017-10-21T01:44:17.137Z,13.40
2017-10-21T01:45:18.561Z,13.46
2017-10-21T01:46:19.985Z,13.40
2017-10-21T01:47:21.401Z,13.56
2017-10-21T01:48:22.827Z,13.52
2017-10-21T01:49:24.270Z,13.54
2017-10-21T01:50:25.663Z,13.47
2017-10-21T01:51:27.080Z,13.44
2017-10-21T01:52:28.506Z,13.51
2017-10-21T01:53:29.926Z,13.47
2017-10-21T01:54:31.344Z,13.43
2017-10-21T01:55:32.768Z,13.56
2017-10-21T01:56:34.189Z,13.44
2017-10-21T01:57:35.604Z,13.43
2017-10-21T01:58:37.027Z,13.54
2017-10-21T01:59:38.448Z,13.62
2017-10-21T02:00:39.862Z,13.56
2017-10-21T02:01:41.291Z,13.49
2017-10-21T02:02:42.706Z,13.47
2017-10-21T02:03:44.132Z,13.63
2017-10-21T02:04:45.571Z,13.62
2017-10-21T02:05:46.999Z,13.61
2017-10-21T02:06:48.418Z,13.55
2017-10-21T02:07:49.846Z,13.62
2017-10-21T02:08:51.269Z,13.61
2017-10-21T02:09:52.689Z,13.59
2017-10-21T02:10:54.116Z,13.61
2017-10-21T02:11:55.536Z,13.65
2017-10-21T02:12:56.971Z,13.58
2017-10-21T02:13:59.285Z,13.52
2017-10-21T02:15:00.713Z,13.73
2017-10-21T02:16:02.132Z,13.73
2017-10-21T02:17:03.551Z,13.73
2017-10-21T02:18:05.015Z,13.58
2017-10-21T02:19:06.445Z,13.58
2017-10-21T02:20:07.849Z,13.70
2017-10-21T02:21:09.264Z,13.59
2017-10-21T02:22:10.678Z,13.62
2017-10-21T02:23:12.100Z,13.71
2017-10-21T02:24:13.519Z,13.69
2017-10-21T02:25:14.939Z,13.73
2017-10-21T02:26:16.356Z,13.70
2017-10-21T02:27:17.786Z,13.65
2017-10-21T02:28:19.203Z,13.71
2017-10-21T02:29:20.622Z,13.70
2017-10-21T02:30:22.036Z,13.80
2017-10-21T02:31:23.453Z,13.73
2017-10-21T02:32:24.880Z,13.73
2017-10-21T02:33:26.299Z,13.71
2017-10-21T02:34:27.723Z,13.73
2017-10-21T02:35:29.142Z,13.62
2017-10-21T02:36:30.566Z,13.55
2017-10-21T02:37:31.979Z,13.55
2017-10-21T02:38:33.414Z,13.63
2017-10-21T02:39:34.835Z,13.58
2017-10-21T02:40:36.253Z,13.69
2017-10-21T02:41:37.674Z,13.74
2017-10-21T02:42:39.097Z,13.62
2017-10-21T02:43:40.515Z,13.69
2017-10-21T02:44:41.938Z,13.54
2017-10-21T02:45:43.349Z,13.62
2017-10-21T02:46:44.766Z,13.61
2017-10-21T02:47:46.188Z,13.59
2017-10-21T02:48:47.604Z,13.76
2017-10-21T02:49:49.026Z,13.73
2017-10-21T02:50:50.467Z,13.73
2017-10-21T02:51:51.901Z,13.71
2017-10-21T02:52:53.305Z,13.70
2017-10-21T02:53:54.726Z,13.67
2017-10-21T02:54:56.160Z,13.74
2017-10-21T02:55:57.683Z,13.67
2017-10-21T02:56:59.102Z,13.61
2017-10-21T02:58:00.575Z,13.61
2017-10-21T02:59:02.002Z,13.65
2017-10-21T03:00:03.414Z,13.67
2017-10-21T03:01:04.905Z,13.71
2017-10-21T03:02:06.327Z,13.71
2017-10-21T03:03:07.750Z,13.69
2017-10-21T03:04:09.180Z,13.79
2017-10-21T03:05:10.611Z,13.71
2017-10-21T03:06:12.020Z,13.73
2017-10-21T03:07:13.435Z,13.80
2017-10-21T03:08:14.851Z,13.67
2017-10-21T03:09:16.268Z,13.65
2017-10-21T03:10:17.680Z,13.58
2017-10-21T03:11:19.095Z,13.65
2017-10-21T03:12:20.512Z,13.76
2017-10-21T03:13:21.931Z,13.77
2017-10-21T03:14:23.356Z,13.62
2017-10-21T03:15:24.774Z,13.70
2017-10-21T03:16:26.196Z,13.73
2017-10-21T03:17:27.605Z,13.74
2017-10-21T03:18:29.030Z,13.71
2017-10-21T03:19:30.444Z,13.76
2017-10-21T03:20:31.865Z,13.67
2017-10-21T03:21:33.286Z,13.70
2017-10-21T03:22:34.707Z,13.88
2017-10-21T03:23:36.124Z,13.81
2017-10-21T03:24:37.547Z,13.80
2017-10-21T03:25:38.964Z,13.91
2017-10-21T03:26:40.375Z,13.81
2017-10-21T03:27:41.799Z,13.89
2017-10-21T03:28:43.233Z,13.84
2017-10-21T03:29:44.646Z,13.84
2017-10-21T03:30:46.054Z,13.96
2017-10-21T03:31:47.470Z,13.95
2017-10-21T03:32:48.884Z,13.95
2017-10-21T03:33:50.306Z,13.88
2017-10-21T03:34:51.718Z,13.88
2017-10-21T03:35:53.133Z,13.94
2017-10-21T03:36:54.549Z,13.89
2017-10-21T03:37:56.002Z,13.89
2017-10-21T03:38:57.381Z,13.95
2017-10-21T03:39:58.802Z,13.87
2017-10-21T03:41:00.226Z,13.89
2017-10-21T03:42:01.644Z,13.89
2017-10-21T03:43:03.063Z,13.91
2017-10-21T03:44:05.099Z,13.98
2017-10-21T03:45:06.525Z,13.95
2017-10-21T03:46:07.956Z,13.87
2017-10-21T03:47:09.377Z,14.02
2017-10-21T03:48:10.791Z,13.99
2017-10-21T03:49:12.216Z,13.84
2017-10-21T03:50:13.630Z,13.89
2017-10-21T03:51:15.914Z,13.95
2017-10-21T03:52:17.363Z,14.01
2017-10-21T03:53:18.781Z,13.96
2017-10-21T03:54:20.211Z,14.01
2017-10-21T03:55:21.635Z,14.01
2017-10-21T03:56:23.062Z,13.99
2017-10-21T03:57:24.484Z,13.96
2017-10-21T03:58:25.868Z,13.96
2017-10-21T03:59:27.293Z,13.91
2017-10-21T04:00:28.716Z,13.94
2017-10-21T04:01:30.146Z,13.95
2017-10-21T04:02:31.566Z,13.96
2017-10-21T04:03:33.600Z,13.92
2017-10-21T04:04:35.018Z,13.96
2017-10-21T04:05:36.435Z,13.95
2017-10-21T04:06:37.857Z,13.89
2017-10-21T04:07:39.278Z,13.88
2017-10-21T04:08:40.709Z,13.92
2017-10-21T04:09:42.121Z,13.81
2017-10-21T04:10:43.547Z,13.89
2017-10-21T04:11:44.967Z,13.88
2017-10-21T04:12:46.384Z,13.89
2017-10-21T04:13:47.806Z,13.99
2017-10-21T04:14:49.217Z,14.02
2017-10-21T04:15:50.638Z,14.01
2017-10-21T04:16:52.062Z,13.99
2017-10-21T04:17:53.479Z,13.89
2017-10-21T04:18:54.958Z,13.96
2017-10-21T04:19:56.373Z,13.99
2017-10-21T04:20:57.916Z,14.04
2017-10-21T04:21:59.334Z,14.07
2017-10-21T04:23:00.757Z,13.98
2017-10-21T04:24:02.262Z,13.99
2017-10-21T04:25:03.676Z,13.99
2017-10-21T04:26:05.146Z,14.06
2017-10-21T04:27:06.564Z,13.95
2017-10-21T04:28:08.059Z,13.94
2017-10-21T04:29:09.477Z,13.87
2017-10-21T04:30:10.897Z,13.92
2017-10-21T04:31:12.320Z,13.95
2017-10-21T04:32:13.737Z,13.87
2017-10-21T04:33:15.227Z,13.95
2017-10-21T04:34:16.653Z,13.88
2017-10-21T04:35:18.072Z,13.96
2017-10-21T04:36:19.504Z,13.96
2017-10-21T04:37:20.960Z,13.88
2017-10-21T04:38:22.361Z,13.96
2017-10-21T04:39:23.789Z,13.98
2017-10-21T04:40:25.204Z,13.94
2017-10-21T04:41:26.622Z,13.96
2017-10-21T04:42:28.036Z,13.83
2017-10-21T04:43:29.450Z,13.88
2017-10-21T04:44:30.870Z,13.89
2017-10-21T04:45:32.285Z,13.98
2017-10-21T04:46:33.705Z,13.92
2017-10-21T04:47:35.122Z,13.88
2017-10-21T04:48:36.537Z,13.84
2017-10-21T04:49:37.958Z,13.80
2017-10-21T04:50:39.375Z,13.83
2017-10-21T04:51:40.795Z,13.80
2017-10-21T04:52:42.208Z,13.84
2017-10-21T04:53:43.628Z,13.87
2017-10-21T04:54:45.044Z,13.88
2017-10-21T04:55:46.467Z,13.83
2017-10-21T04:56:47.891Z,13.83
2017-10-21T04:57:49.318Z,13.91
2017-10-21T04:58:50.738Z,13.84
2017-10-21T04:59:52.157Z,13.81
2017-10-21T05:00:53.578Z,13.91
2017-10-21T05:01:54.998Z,13.79
2017-10-21T05:02:56.412Z,13.77
2017-10-21T05:03:57.826Z,13.73
2017-10-21T05:04:59.245Z,13.73
2017-10-21T05:06:00.667Z,13.69
2017-10-21T05:07:02.083Z,13.73
2017-10-21T05:08:03.499Z,13.71
2017-10-21T05:09:04.921Z,13.76
2017-10-21T05:10:06.338Z,13.70
2017-10-21T05:11:07.752Z,13.71
2017-10-21T05:12:09.166Z,13.59
2017-10-21T05:13:10.577Z,13.58
2017-10-21T05:14:12.010Z,13.49
2017-10-21T05:15:13.437Z,13.61
2017-10-21T05:16:14.855Z,13.52
2017-10-21T05:17:16.277Z,13.51
2017-10-21T05:18:17.697Z,13.51
2017-10-21T05:19:19.121Z,13.47
2017-10-21T05:20:20.538Z,13.51
2017-10-21T05:21:21.960Z,13.55
2017-10-21T05:22:23.379Z,13.52
2017-10-21T05:23:24.810Z,13.52
2017-10-21T05:24:26.237Z,13.49
2017-10-21T05:25:27.652Z,13.43
2017-10-21T05:26:29.064Z,13.40
2017-10-21T05:27:30.484Z,13.32
2017-10-21T05:28:31.896Z,13.49
2017-10-21T05:29:33.319Z,13.38
2017-10-21T05:30:34.754Z,13.44
2017-10-21T05:31:36.149Z,13.43
2017-10-21T05:32:37.561Z,13.36
2017-10-21T05:33:38.978Z,13.46
2017-10-21T05:34:40.395Z,13.33
2017-10-21T05:35:41.815Z,13.38
2017-10-21T05:36:43.230Z,13.44
2017-10-21T05:37:44.645Z,13.38
2017-10-21T05:38:46.055Z,13.32
2017-10-21T05:39:47.479Z,13.40
2017-10-21T05:40:48.895Z,13.47
2017-10-21T05:41:50.318Z,13.47
2017-10-21T05:42:51.739Z,13.51
2017-10-21T05:43:53.167Z,13.40
2017-10-21T05:44:54.589Z,13.43
2017-10-21T05:45:56.012Z,13.47
2017-10-21T05:46:57.432Z,13.47
2017-10-21T05:47:58.847Z,13.47
2017-10-21T05:49:00.273Z,13.40
2017-10-21T05:50:01.682Z,13.46
2017-10-21T05:51:03.099Z,13.47
2017-10-21T05:52:04.522Z,13.52
2017-10-21T05:53:05.938Z,13.51
2017-10-21T05:54:07.356Z,13.54
2017-10-21T05:55:08.769Z,13.61
2017-10-21T05:56:10.188Z,13.49
2017-10-21T05:57:11.616Z,13.40
2017-10-21T05:58:13.034Z,13.40
2017-10-21T05:59:14.455Z,13.33
2017-10-21T06:00:15.877Z,13.38
2017-10-21T06:01:17.296Z,13.33
2017-10-21T06:02:18.716Z,13.33
2017-10-21T06:03:20.149Z,13.43
2017-10-21T06:04:21.650Z,13.40
2017-10-21T06:05:23.083Z,13.37
2017-10-21T06:06:24.503Z,13.33
2017-10-21T06:07:25.934Z,13.29
2017-10-21T06:08:27.357Z,13.37
2017-10-21T06:09:28.773Z,13.43
2017-10-21T06:10:30.186Z,13.25
2017-10-21T06:11:31.602Z,13.25
2017-10-21T06:12:33.036Z,13.27
2017-10-21T06:13:34.455Z,13.36
2017-10-21T06:14:35.869Z,13.29
2017-10-21T06:15:37.287Z,13.29
2017-10-21T06:16:38.706Z,13.17
2017-10-21T06:17:40.122Z,13.21
2017-10-21T06:18:41.538Z,13.32
2017-10-21T06:19:42.993Z,13.20
2017-10-21T06:20:44.415Z,13.38
2017-10-21T06:21:45.840Z,13.47
2017-10-21T06:22:47.255Z,13.46
2017-10-21T06:23:48.760Z,13.36
2017-10-21T06:24:50.180Z,13.49
2017-10-21T06:25:51.598Z,13.40
2017-10-21T06:26:53.020Z,13.54
2017-10-21T06:27:54.454Z,13.40
2017-10-21T06:28:55.876Z,13.38
2017-10-21T06:29:57.297Z,13.38
2017-10-21T06:30:58.712Z,13.44
2017-10-21T06:32:00.135Z,13.36
2017-10-21T06:33:01.555Z,13.33
2017-10-21T06:34:02.980Z,13.25
2017-10-21T06:35:04.424Z,13.27
2017-10-21T06:36:05.852Z,13.24
2017-10-21T06:37:07.267Z,13.29
2017-10-21T06:38:08.696Z,13.30
2017-10-21T06:39:10.116Z,13.29
2017-10-21T06:40:11.541Z,13.24
2017-10-21T06:41:13.024Z,13.38
2017-10-21T06:42:14.441Z,13.38
2017-10-21T06:43:15.864Z,13.52
2017-10-21T06:44:17.284Z,13.49
2017-10-21T06:45:18.714Z,13.70
2017-10-21T06:46:20.130Z,13.77
2017-10-21T06:47:21.559Z,13.74
2017-10-21T06:48:22.980Z,13.73
2017-10-21T06:49:24.397Z,13.73
2017-10-21T06:50:25.818Z,13.91
2017-10-21T06:51:27.235Z,13.95
2017-10-21T06:52:28.658Z,13.84
2017-10-21T06:53:30.073Z,13.92
2017-10-21T06:54:31.497Z,13.84
2017-10-21T06:55:32.929Z,13.94
2017-10-21T06:56:34.359Z,13.95
2017-10-21T06:57:35.784Z,13.98
2017-10-21T06:58:37.201Z,13.95
2017-10-21T06:59:38.635Z,13.96
2017-10-21T07:00:40.055Z,14.06
2017-10-21T07:01:41.482Z,14.02
2017-10-21T07:02:42.914Z,13.98
2017-10-21T07:03:44.339Z,14.06
2017-10-21T07:04:45.777Z,14.09
2017-10-21T07:05:47.189Z,14.14
2017-10-21T07:06:48.652Z,14.14
2017-10-21T07:07:50.074Z,14.20
2017-10-21T07:08:51.500Z,14.10
2017-10-21T07:09:52.939Z,14.06
2017-10-21T07:10:54.369Z,14.27
2017-10-21T07:11:55.795Z,14.21
2017-10-21T07:12:57.228Z,14.16
2017-10-21T07:13:58.664Z,14.14
2017-10-21T07:15:00.078Z,14.27
2017-10-21T07:16:01.500Z,14.19
2017-10-21T07:17:02.928Z,14.21
2017-10-21T07:18:04.347Z,14.17
2017-10-21T07:19:05.771Z,14.32
2017-10-21T07:20:07.191Z,14.50
2017-10-21T07:21:08.608Z,14.50
2017-10-21T07:22:10.040Z,14.53
2017-10-21T07:23:11.462Z,14.35
2017-10-21T07:24:12.887Z,14.46
2017-10-21T07:25:14.309Z,14.57
2017-10-21T07:26:15.730Z,14.62
2017-10-21T07:27:17.147Z,14.42
2017-10-21T07:28:18.568Z,14.53
2017-10-21T07:29:19.994Z,14.56
2017-10-21T07:30:21.411Z,14.52
2017-10-21T07:31:22.835Z,14.56
2017-10-21T07:32:24.256Z,14.57
2017-10-21T07:33:25.678Z,14.61
2017-10-21T07:34:27.131Z,14.74
2017-10-21T07:35:28.530Z,14.62
2017-10-21T07:36:29.965Z,14.65
2017-10-21T07:37:31.384Z,14.65
2017-10-21T07:38:32.811Z,14.75
2017-10-21T07:39:34.231Z,14.65
2017-10-21T07:40:35.657Z,14.78
2017-10-21T07:41:37.072Z,14.86
2017-10-21T07:42:38.502Z,14.83
2017-10-21T07:43:39.926Z,14.83
2017-10-21T07:44:41.356Z,14.86
2017-10-21T07:45:42.776Z,14.69
2017-10-21T07:46:44.199Z,14.53
2017-10-21T07:47:45.629Z,14.60
2017-10-21T07:48:47.048Z,14.61
2017-10-21T07:49:48.472Z,14.68
2017-10-21T07:50:49.885Z,14.62
2017-10-21T07:51:51.313Z,14.64
2017-10-21T07:52:52.741Z,14.69
2017-10-21T07:53:54.194Z,14.80
2017-10-21T07:54:55.656Z,14.81
2017-10-21T07:55:57.076Z,14.86
2017-10-21T07:56:58.500Z,14.94
2017-10-21T07:57:59.927Z,14.98
2017-10-21T07:59:01.353Z,15.01
2017-10-21T08:00:02.786Z,15.12
2017-10-21T08:01:04.208Z,15.02
2017-10-21T08:02:05.615Z,15.01
2017-10-21T08:03:07.032Z,14.98
2017-10-21T08:04:08.464Z,14.98
2017-10-21T08:05:09.888Z,14.98
2017-10-21T08:06:11.318Z,14.99
2017-10-21T08:07:12.739Z,15.15
2017-10-21T08:08:14.182Z,15.24
2017-10-21T08:09:15.611Z,15.39
2017-10-21T08:10:17.023Z,15.27
2017-10-21T08:11:18.450Z,15.12
2017-10-21T08:12:19.873Z,14.83
2017-10-21T08:13:21.298Z,14.57
2017-10-21T08:14:22.726Z,14.56
2017-10-21T08:15:24.150Z,14.74
2017-10-21T08:16:25.570Z,14.81
2017-10-21T08:17:26.993Z,14.60
2017-10-21T08:18:28.412Z,14.56
2017-10-21T08:19:29.835Z,14.57
2017-10-21T08:20:31.269Z,14.57
2017-10-21T08:21:32.692Z,14.67
2017-10-21T08:22:34.121Z,14.57
2017-10-21T08:23:35.545Z,14.54
2017-10-21T08:24:36.970Z,14.56
2017-10-21T08:25:38.403Z,14.47
2017-10-21T08:26:39.831Z,14.47
2017-10-21T08:27:41.261Z,14.42
2017-10-21T08:28:42.681Z,14.42
2017-10-21T08:29:44.106Z,14.44
2017-10-21T08:30:45.537Z,14.37
2017-10-21T08:31:46.984Z,14.52
2017-10-21T08:32:48.412Z,14.32
2017-10-21T08:33:49.828Z,14.31
2017-10-21T08:34:51.283Z,14.44
2017-10-21T08:35:52.701Z,14.39
2017-10-21T08:36:54.157Z,14.27
2017-10-21T08:37:55.587Z,14.25
2017-10-21T08:38:57.023Z,14.27
2017-10-21T08:39:58.460Z,14.35
2017-10-21T08:40:59.885Z,14.37
2017-10-21T08:42:01.307Z,14.56
2017-10-21T08:43:02.739Z,14.54
2017-10-21T08:44:04.164Z,14.52
2017-10-21T08:45:05.601Z,14.53
2017-10-21T08:46:07.028Z,14.56
2017-10-21T08:47:08.451Z,14.57
2017-10-21T08:48:09.871Z,14.54
2017-10-21T08:49:11.294Z,14.69
2017-10-21T08:50:12.717Z,14.75
2017-10-21T08:51:14.140Z,14.72
2017-10-21T08:52:15.567Z,14.68
2017-10-21T08:53:16.994Z,14.64
2017-10-21T08:54:18.420Z,14.56
2017-10-21T08:55:19.844Z,14.57
2017-10-21T08:56:21.271Z,14.61
2017-10-21T08:57:22.686Z,14.61
2017-10-21T08:58:24.116Z,14.53
2017-10-21T08:59:25.540Z,14.60
2017-10-21T09:00:26.956Z,14.68
2017-10-21T09:01:28.390Z,14.65
2017-10-21T09:02:29.809Z,14.74
2017-10-21T09:03:31.238Z,14.57
2017-10-21T09:04:32.657Z,14.61
2017-10-21T09:05:34.082Z,14.62
2017-10-21T09:06:35.516Z,14.67
2017-10-21T09:07:36.940Z,14.74
2017-10-21T09:08:38.361Z,14.72
2017-10-21T09:09:39.790Z,14.86
2017-10-21T09:10:41.210Z,14.88
2017-10-21T09:11:42.637Z,14.84
2017-10-21T09:12:44.069Z,14.87
2017-10-21T09:13:45.488Z,14.87
2017-10-21T09:14:46.918Z,14.93
2017-10-21T09:15:48.347Z,14.91
2017-10-21T09:16:49.766Z,14.84
2017-10-21T09:17:51.186Z,14.91
2017-10-21T09:18:52.609Z,14.94
2017-10-21T09:19:54.076Z,14.94
2017-10-21T09:20:55.491Z,15.02
2017-10-21T09:21:56.931Z,14.95
2017-10-21T09:22:58.357Z,15.17
2017-10-21T09:23:59.780Z,15.03
2017-10-21T09:25:01.221Z,15.09
2017-10-21T09:26:02.656Z,15.11
2017-10-21T09:27:04.080Z,15.26
2017-10-21T09:28:05.629Z,15.23
2017-10-21T09:29:07.066Z,15.26
2017-10-21T09:30:08.496Z,15.36
2017-10-21T09:31:09.927Z,15.23
2017-10-21T09:32:11.356Z,15.27
2017-10-21T09:33:12.779Z,15.27
2017-10-21T09:34:14.200Z,15.36
2017-10-21T09:35:15.637Z,15.35
2017-10-21T09:36:17.123Z,15.46
2017-10-21T09:37:18.576Z,15.45
2017-10-21T09:38:20.016Z,15.52
2017-10-21T09:39:21.454Z,15.39
2017-10-21T09:40:22.873Z,15.31
2017-10-21T09:41:24.370Z,15.36
2017-10-21T09:42:25.812Z,15.28
2017-10-21T09:43:27.235Z,15.36
2017-10-21T09:44:28.682Z,15.38
2017-10-21T09:45:30.099Z,15.36
2017-10-21T09:46:31.529Z,15.49
2017-10-21T09:47:32.948Z,15.51
2017-10-21T09:48:34.367Z,15.66
2017-10-21T09:49:35.791Z,15.57
2017-10-21T09:50:37.221Z,15.66
2017-10-21T09:51:38.649Z,15.57
2017-10-21T09:52:40.077Z,15.61
2017-10-21T09:53:41.498Z,15.67
2017-10-21T09:54:42.929Z,15.74
2017-10-21T09:55:44.379Z,15.72
2017-10-21T09:56:45.775Z,15.85
2017-10-21T09:57:47.204Z,15.79
2017-10-21T09:58:48.628Z,15.68
2017-10-21T09:59:50.061Z,15.88
2017-10-21T10:00:51.486Z,15.81
2017-10-21T10:01:52.906Z,16.01
2017-10-21T10:02:54.332Z,15.92
2017-10-21T10:03:55.761Z,15.86
2017-10-21T10:04:57.184Z,15.96
2017-10-21T10:05:58.606Z,16.01
2017-10-21T10:07:00.031Z,15.96
2017-10-21T10:08:01.476Z,15.94
2017-10-21T10:09:02.885Z,15.96
2017-10-21T10:10:04.326Z,15.81
2017-10-21T10:11:05.754Z,15.99
2017-10-21T10:12:07.202Z,15.93
2017-10-21T10:13:08.633Z,15.97
2017-10-21T10:14:10.063Z,15.97
2017-10-21T10:15:11.490Z,16.06
2017-10-21T10:16:12.916Z,16.04
2017-10-21T10:17:14.343Z,15.99
2017-10-21T10:18:15.764Z,16.06
2017-10-21T10:19:17.203Z,16.01
2017-10-21T10:20:18.630Z,16.11
2017-10-21T10:21:20.057Z,16.15
2017-10-21T10:22:21.480Z,16.03
2017-10-21T10:23:22.902Z,16.22
2017-10-21T10:24:24.327Z,16.23
2017-10-21T10:25:25.754Z,16.27
2017-10-21T10:26:27.205Z,16.27
2017-10-21T10:27:28.639Z,16.26
2017-10-21T10:28:30.059Z,16.11
2017-10-21T10:29:31.505Z,16.20
2017-10-21T10:30:35.161Z,16.18
2017-10-21T10:31:36.583Z,16.23
2017-10-21T10:32:38.005Z,16.27
2017-10-21T10:33:39.427Z,16.41
2017-10-21T10:34:41.586Z,16.30
2017-10-21T10:35:43.074Z,16.30
2017-10-21T10:36:44.504Z,16.26
2017-10-21T10:37:45.956Z,16.41
2017-10-21T10:38:47.383Z,16.40
2017-10-21T10:39:48.842Z,16.31
2017-10-21T10:40:50.248Z,16.31
2017-10-21T10:41:51.665Z,16.50
2017-10-21T10:42:53.087Z,16.53
2017-10-21T10:43:54.509Z,16.45
2017-10-21T10:44:55.926Z,16.49
2017-10-21T10:45:57.358Z,16.42
2017-10-21T10:46:58.779Z,16.41
2017-10-21T10:48:00.217Z,16.48
2017-10-21T10:49:01.635Z,16.48
2017-10-21T10:50:03.075Z,16.48
2017-10-21T10:51:04.511Z,16.52
2017-10-21T10:52:05.927Z,16.48
2017-10-21T10:53:07.349Z,16.49
2017-10-21T10:54:08.778Z,16.60
2017-10-21T10:55:10.199Z,16.65
2017-10-21T10:56:11.624Z,16.77
2017-10-21T10:57:13.057Z,16.73
2017-10-21T10:58:14.484Z,16.65
2017-10-21T10:59:15.923Z,16.77
2017-10-21T11:00:17.348Z,16.77
2017-10-21T11:01:18.771Z,16.58
2017-10-21T11:02:20.215Z,16.59
2017-10-21T11:03:21.672Z,16.80
2017-10-21T11:04:23.062Z,16.75
2017-10-21T11:05:25.433Z,16.75
2017-10-21T11:06:26.852Z,16.78
2017-10-21T11:07:28.281Z,16.92
2017-10-21T11:08:29.716Z,16.83
2017-10-21T11:09:31.144Z,16.74
2017-10-21T11:10:32.580Z,16.63
2017-10-21T11:11:33.998Z,16.58
2017-10-21T11:12:35.429Z,16.55
2017-10-21T11:13:36.854Z,16.53
2017-10-21T11:14:38.284Z,16.52
2017-10-21T11:15:39.718Z,16.71
2017-10-21T11:16:41.134Z,16.70
2017-10-21T11:17:42.584Z,16.75
2017-10-21T11:18:44.016Z,16.99
2017-10-21T11:19:45.449Z,16.93
2017-10-21T11:20:46.875Z,17.04
2017-10-21T11:21:50.709Z,17.30
2017-10-21T11:22:53.115Z,17.53
2017-10-21T11:23:55.262Z,17.46
2017-10-21T11:24:55.942Z,17.36
2017-10-21T11:25:57.381Z,17.46
2017-10-21T11:26:58.804Z,17.57
2017-10-21T11:28:00.229Z,17.35
2017-10-21T11:29:01.659Z,17.20
2017-10-21T11:30:03.085Z,17.30
2017-10-21T11:31:04.502Z,17.35
2017-10-21T11:32:05.930Z,17.32
2017-10-21T11:33:07.358Z,17.35
2017-10-21T11:34:08.792Z,17.22
2017-10-21T11:35:10.215Z,17.33
2017-10-21T11:36:11.718Z,17.35
2017-10-21T11:37:13.139Z,17.55
2017-10-21T11:38:14.569Z,17.64
2017-10-21T11:39:15.991Z,17.53
2017-10-21T11:40:17.416Z,17.59
2017-10-21T11:41:18.844Z,17.66
2017-10-21T11:42:20.264Z,17.50
2017-10-21T11:43:21.703Z,17.51
2017-10-21T11:44:23.122Z,17.46
2017-10-21T11:45:24.544Z,17.51
2017-10-21T11:46:25.969Z,17.36
2017-10-21T11:47:27.425Z,17.32
2017-10-21T11:48:28.862Z,17.30
2017-10-21T11:49:30.298Z,17.14
2017-10-21T11:50:31.734Z,17.40
2017-10-21T11:51:33.162Z,17.46
2017-10-21T11:52:34.644Z,17.76
2017-10-21T11:53:36.076Z,17.74
2017-10-21T11:54:37.502Z,17.78
2017-10-21T11:55:38.932Z,17.71
2017-10-21T11:56:40.481Z,17.89
2017-10-21T11:57:41.893Z,17.88
2017-10-21T11:58:43.325Z,17.73
2017-10-21T11:59:44.817Z,17.87
2017-10-21T12:00:46.557Z,17.73
2017-10-21T12:01:47.965Z,17.74
2017-10-21T12:02:49.397Z,17.85
2017-10-21T12:03:50.828Z,17.74
2017-10-21T12:04:52.281Z,17.99
2017-10-21T12:05:53.698Z,17.97
2017-10-21T12:06:55.130Z,18.17
2017-10-21T12:07:56.547Z,18.17
2017-10-21T12:08:58.969Z,18.21
2017-10-21T12:10:00.413Z,18.21
2017-10-21T12:11:01.842Z,18.09
2017-10-21T12:12:03.269Z,18.18
2017-10-21T12:13:04.701Z,18.27
2017-10-21T12:14:06.141Z,18.02
2017-10-21T12:15:07.570Z,18.33
2017-10-21T12:16:08.999Z,18.29
2017-10-21T12:17:10.432Z,18.37
2017-10-21T12:18:11.856Z,18.31
2017-10-21T12:19:13.284Z,18.24
2017-10-21T12:20:14.708Z,18.42
2017-10-21T12:21:16.129Z,18.42
2017-10-21T12:22:17.582Z,18.34
2017-10-21T12:23:19.010Z,18.24
2017-10-21T12:24:20.439Z,18.09
2017-10-21T12:25:21.886Z,18.02
2017-10-21T12:26:26.315Z,18.02
2017-10-21T12:27:27.763Z,18.31
2017-10-21T12:28:29.196Z,18.22
2017-10-21T12:29:30.708Z,18.22
2017-10-21T12:30:32.138Z,18.36
2017-10-21T12:31:33.565Z,18.50
2017-10-21T12:32:35.005Z,18.54
2017-10-21T12:33:36.444Z,18.77
2017-10-21T12:34:37.875Z,18.94
2017-10-21T12:35:39.302Z,19.01
2017-10-21T12:36:40.732Z,19.05
2017-10-21T12:37:42.160Z,19.65
2017-10-21T12:38:43.706Z,20.81
2017-10-21T12:39:45.134Z,24.49
2017-10-21T12:41:11.505Z,24.22
2017-10-21T12:42:22.930Z,20.79
2017-10-21T12:43:24.360Z,20.10
2017-10-21T12:44:25.788Z,19.84
2017-10-21T12:45:27.219Z,19.50
2017-10-21T12:46:28.653Z,19.21
2017-10-21T12:47:30.079Z,18.91
2017-10-21T12:48:31.512Z,19.01
2017-10-21T12:49:32.947Z,19.73
2017-10-21T12:50:34.373Z,24.53
2017-10-21T12:51:35.805Z,28.26
2017-10-21T12:52:37.250Z,29.22
2017-10-21T12:53:38.680Z,27.69
2017-10-21T12:54:40.109Z,31.24
2017-10-21T12:55:41.541Z,33.15
2017-10-21T12:56:42.971Z,32.99
2017-10-21T12:57:44.405Z,31.02
2017-10-21T12:58:45.840Z,28.69
2017-10-21T12:59:47.272Z,25.62
2017-10-21T13:00:48.716Z,23.40
2017-10-21T13:01:50.162Z,22.71
2017-10-21T13:02:51.601Z,22.39
2017-10-21T13:03:53.039Z,24.56
2017-10-21T13:04:54.469Z,25.94
2017-10-21T13:05:55.911Z,24.41
2017-10-21T13:06:57.338Z,22.80
2017-10-21T13:07:59.997Z,21.69
2017-10-21T13:09:01.431Z,21.04
2017-10-21T13:10:02.877Z,20.50
2017-10-21T13:11:04.307Z,20.49
2017-10-21T13:12:05.736Z,20.15